Terminal Aerodrome Forecast
Issued by NWS Missoula, MT

Home | Current Version | Previous Version | Text Only | Print | Product List | Glossary On
Versions: 1 2 3 4 5 6 7 8 9 10 11 12 13 14 15 16 17 18
000
FTUS45 KMSO 271521 AAB
TAFGPI
TAF AMD
KGPI 271521Z 2715/2812 00000KT 3SM -SN BR SCT008 OVC025
      TEMPO 2715/2719 1SM -SN
     FM280000 18004KT 2SM -SN BR SCT006 OVC015=

USA.gov is the U.S. government's official web portal to all federal, state and local government web resources and services.